createdAt,value
2022-11-17T00:01:32.567Z,87.17
2022-11-17T00:04:02.211Z,87.51
2022-11-17T00:06:30.539Z,86.77
2022-11-17T00:08:59.039Z,87.31
2022-11-17T00:11:47.498Z,87.09
2022-11-17T00:14:33.228Z,86.82
2022-11-17T00:17:02.061Z,86.67
2022-11-17T00:19:49.045Z,86.59
2022-11-17T00:22:17.430Z,86.59
2022-11-17T00:24:46.597Z,86.29
2022-11-17T00:27:15.231Z,87.06
2022-11-17T00:29:43.598Z,86.44
2022-11-17T00:32:31.058Z,86.48
2022-11-17T00:35:00.763Z,86.28
2022-11-17T00:37:31.265Z,86.50
2022-11-17T00:40:01.136Z,86.09
2022-11-17T00:42:29.854Z,86.38
2022-11-17T00:44:58.219Z,86.73
2022-11-17T00:47:26.528Z,86.08
2022-11-17T00:49:54.866Z,86.22
2022-11-17T00:52:24.517Z,86.37
2022-11-17T00:54:52.841Z,86.05
2022-11-17T00:57:21.171Z,85.73
2022-11-17T00:59:49.488Z,85.79
2022-11-17T01:02:17.768Z,85.65
2022-11-17T01:04:46.089Z,85.08
2022-11-17T01:07:14.530Z,85.67
2022-11-17T01:09:44.190Z,85.95
2022-11-17T01:12:12.793Z,85.38
2022-11-17T01:14:41.256Z,85.19
2022-11-17T01:17:09.590Z,85.63
2022-11-17T01:19:37.927Z,85.57
2022-11-17T01:22:06.773Z,85.24
2022-11-17T01:24:35.100Z,84.85
2022-11-17T01:27:04.902Z,85.11
2022-11-17T01:29:33.420Z,84.61
2022-11-17T01:32:01.953Z,84.83
2022-11-17T01:34:30.307Z,84.97
2022-11-17T01:37:16.307Z,84.41
2022-11-17T01:39:45.030Z,84.36
2022-11-17T01:42:18.301Z,84.49
2022-11-17T01:45:04.419Z,84.99
2022-11-17T01:47:51.471Z,84.40
2022-11-17T01:50:38.452Z,84.41
2022-11-17T01:53:12.233Z,84.37
2022-11-17T01:55:46.798Z,84.51
2022-11-17T01:58:22.395Z,84.62
2022-11-17T02:00:50.912Z,84.60
2022-11-17T02:03:19.415Z,84.55
2022-11-17T02:05:56.115Z,84.62
2022-11-17T02:08:28.837Z,85.09
2022-11-17T02:10:57.870Z,84.55
2022-11-17T02:13:28.889Z,84.96
2022-11-17T02:15:57.540Z,85.45
2022-11-17T02:18:26.109Z,85.30
2022-11-17T02:21:18.198Z,84.88
2022-11-17T02:24:27.022Z,84.72
2022-11-17T02:27:37.168Z,84.91
2022-11-17T02:30:11.502Z,85.31
2022-11-17T02:32:50.677Z,84.78
2022-11-17T02:35:24.902Z,84.71
2022-11-17T02:38:02.178Z,84.84
2022-11-17T02:40:35.377Z,84.29
2022-11-17T02:43:26.886Z,85.11
2022-11-17T02:46:03.765Z,84.89
2022-11-17T02:48:37.320Z,84.23
2022-11-17T02:51:07.660Z,84.59
2022-11-17T02:53:37.960Z,84.22
2022-11-17T02:56:08.352Z,84.96
2022-11-17T02:58:36.705Z,84.31
2022-11-17T03:01:22.240Z,85.12
2022-11-17T03:04:11.036Z,84.96
2022-11-17T03:06:51.632Z,85.03
2022-11-17T03:09:27.836Z,84.59
2022-11-17T03:12:02.766Z,84.97
2022-11-17T03:14:52.288Z,84.57
2022-11-17T03:17:28.359Z,84.44
2022-11-17T03:20:03.888Z,84.25
2022-11-17T03:22:42.183Z,84.43
2022-11-17T03:25:17.468Z,84.89
2022-11-17T03:27:49.513Z,84.75
2022-11-17T03:30:20.907Z,84.68
2022-11-17T03:32:58.144Z,84.33
2022-11-17T03:35:30.708Z,84.93
2022-11-17T03:38:04.764Z,84.72
2022-11-17T03:40:35.848Z,84.81
2022-11-17T03:43:08.012Z,84.78
2022-11-17T03:45:38.829Z,85.09
2022-11-17T03:48:15.228Z,85.21
2022-11-17T03:50:48.512Z,85.54
2022-11-17T03:53:17.174Z,85.13
2022-11-17T03:55:55.863Z,85.60
2022-11-17T03:58:29.240Z,85.61
2022-11-17T04:01:00.102Z,85.47
2022-11-17T04:03:34.099Z,85.39
2022-11-17T04:06:03.058Z,85.67
2022-11-17T04:08:31.846Z,85.72
2022-11-17T04:11:17.716Z,85.40
2022-11-17T04:14:02.876Z,85.95
2022-11-17T04:16:31.235Z,85.63
2022-11-17T04:19:00.888Z,85.79
2022-11-17T04:21:29.380Z,85.56
2022-11-17T04:23:57.984Z,85.80
2022-11-17T04:26:43.912Z,85.97
2022-11-17T04:29:12.241Z,85.90
2022-11-17T04:31:40.570Z,85.86
2022-11-17T04:34:10.275Z,86.00
2022-11-17T04:36:40.801Z,85.98
2022-11-17T04:39:09.707Z,86.14
2022-11-17T04:41:57.271Z,86.05
2022-11-17T04:44:27.961Z,86.08
2022-11-17T04:46:57.778Z,86.04
2022-11-17T04:49:27.747Z,86.06
2022-11-17T04:51:56.243Z,85.98
2022-11-17T04:54:26.054Z,85.71
2022-11-17T04:56:55.821Z,86.22
2022-11-17T04:59:24.875Z,86.05
2022-11-17T05:01:53.400Z,85.94
2022-11-17T05:04:36.630Z,86.07
2022-11-17T05:07:06.990Z,85.85
2022-11-17T05:09:35.340Z,85.90
2022-11-17T05:12:21.721Z,85.82
2022-11-17T05:14:50.512Z,85.85
2022-11-17T05:17:18.328Z,85.90
2022-11-17T05:19:48.144Z,85.92
2022-11-17T05:22:36.710Z,85.77
2022-11-17T05:25:06.835Z,85.66
2022-11-17T05:27:36.037Z,85.70
2022-11-17T05:30:06.901Z,85.83
2022-11-17T05:32:35.477Z,85.70
2022-11-17T05:35:03.876Z,85.75
2022-11-17T05:37:33.566Z,85.72
2022-11-17T05:40:01.879Z,85.82
2022-11-17T05:42:30.224Z,86.07
2022-11-17T05:44:58.546Z,85.79
2022-11-17T05:47:26.937Z,85.87
2022-11-17T05:49:55.256Z,85.79
2022-11-17T05:52:23.598Z,85.76
2022-11-17T05:54:53.290Z,85.90
2022-11-17T05:57:27.291Z,85.69
2022-11-17T06:00:00.615Z,85.83
2022-11-17T06:02:35.088Z,85.65
2022-11-17T06:05:03.894Z,85.68
2022-11-17T06:07:32.256Z,85.74
2022-11-17T06:10:01.953Z,85.55
2022-11-17T06:12:30.295Z,85.82
2022-11-17T06:14:58.643Z,85.78
2022-11-17T06:17:32.344Z,85.66
2022-11-17T06:20:04.758Z,85.75
2022-11-17T06:22:34.162Z,85.71
2022-11-17T06:25:05.634Z,85.49
2022-11-17T06:27:34.975Z,85.48
2022-11-17T06:30:05.681Z,85.48
2022-11-17T06:32:36.242Z,85.37
2022-11-17T06:35:07.075Z,85.41
2022-11-17T06:37:39.273Z,85.38
2022-11-17T06:40:11.672Z,85.24
2022-11-17T06:42:57.746Z,85.30
2022-11-17T06:45:26.228Z,85.80
2022-11-17T06:47:55.121Z,85.64
2022-11-17T06:50:23.432Z,85.78
2022-11-17T06:52:51.842Z,85.82
2022-11-17T06:55:21.780Z,86.33
2022-11-17T06:57:53.414Z,86.12
2022-11-17T07:00:22.441Z,86.17
2022-11-17T07:02:50.829Z,86.19
2022-11-17T07:05:19.189Z,86.17
2022-11-17T07:07:47.804Z,85.86
2022-11-17T07:10:16.252Z,85.73
2022-11-17T07:12:46.851Z,85.59
2022-11-17T07:15:15.356Z,85.48
2022-11-17T07:17:43.760Z,85.25
2022-11-17T07:20:13.218Z,85.30
2022-11-17T07:22:42.560Z,85.56
2022-11-17T07:25:19.621Z,85.39
2022-11-17T07:28:08.320Z,85.52
2022-11-17T07:30:36.824Z,85.27
2022-11-17T07:33:06.187Z,85.26
2022-11-17T07:35:37.126Z,85.29
2022-11-17T07:38:05.593Z,85.63
2022-11-17T07:40:33.982Z,84.93
2022-11-17T07:43:03.755Z,85.39
2022-11-17T07:45:32.532Z,85.35
2022-11-17T07:48:03.506Z,85.46
2022-11-17T07:50:32.179Z,85.43
2022-11-17T07:53:00.722Z,85.52
2022-11-17T07:55:29.266Z,85.42
2022-11-17T07:57:58.332Z,85.41
2022-11-17T08:00:29.905Z,85.50
2022-11-17T08:03:01.636Z,85.49
2022-11-17T08:05:30.835Z,85.54
2022-11-17T08:08:00.606Z,85.53
2022-11-17T08:10:31.294Z,85.43
2022-11-17T08:13:00.852Z,85.56
2022-11-17T08:15:31.904Z,85.46
2022-11-17T08:18:02.146Z,85.35
2022-11-17T08:20:30.993Z,85.10
2022-11-17T08:22:59.468Z,85.38
2022-11-17T08:25:28.951Z,85.18
2022-11-17T08:27:58.217Z,85.12
2022-11-17T08:30:27.352Z,85.35
2022-11-17T08:32:57.135Z,85.10
2022-11-17T08:35:26.799Z,85.07
2022-11-17T08:37:55.931Z,84.81
2022-11-17T08:40:24.755Z,84.99
2022-11-17T08:43:00.595Z,84.87
2022-11-17T08:45:30.060Z,85.01
2022-11-17T08:48:00.042Z,84.43
2022-11-17T08:50:28.577Z,84.92
2022-11-17T08:53:06.955Z,84.64
2022-11-17T08:55:41.181Z,84.58
2022-11-17T08:58:10.076Z,84.28
2022-11-17T09:00:38.632Z,84.38
2022-11-17T09:03:11.359Z,84.24
2022-11-17T09:05:40.848Z,83.99
2022-11-17T09:08:43.539Z,84.00
2022-11-17T09:10:59.096Z,83.92
2022-11-17T09:13:27.491Z,83.80
2022-11-17T09:15:55.855Z,83.30
2022-11-17T09:18:25.599Z,83.42
2022-11-17T09:20:53.994Z,83.30
2022-11-17T09:23:22.530Z,83.17
2022-11-17T09:25:50.943Z,83.26
2022-11-17T09:28:19.283Z,83.03
2022-11-17T09:30:47.782Z,82.95
2022-11-17T09:33:16.231Z,82.56
2022-11-17T09:35:46.116Z,82.35
2022-11-17T09:38:14.493Z,81.92
2022-11-17T09:40:44.486Z,82.01
2022-11-17T09:43:26.646Z,82.39
2022-11-17T09:46:01.896Z,81.84
2022-11-17T09:48:42.038Z,82.39
2022-11-17T09:51:16.257Z,82.62
2022-11-17T09:53:50.816Z,82.26
2022-11-17T09:56:19.387Z,83.21
2022-11-17T09:58:52.110Z,82.92
2022-11-17T10:01:21.989Z,83.05
2022-11-17T10:03:51.940Z,82.83
2022-11-17T10:06:23.799Z,82.49
2022-11-17T10:09:00.264Z,82.66
2022-11-17T10:11:34.092Z,83.01
2022-11-17T10:14:15.166Z,82.56
2022-11-17T10:16:45.865Z,83.22
2022-11-17T10:19:19.094Z,83.19
2022-11-17T10:21:52.920Z,83.37
2022-11-17T10:24:39.203Z,83.02
2022-11-17T10:27:20.311Z,83.30
2022-11-17T10:29:58.651Z,82.64
2022-11-17T10:32:27.665Z,82.61
2022-11-17T10:34:56.025Z,82.38
2022-11-17T10:37:31.912Z,82.36
2022-11-17T10:40:18.243Z,81.84
2022-11-17T10:43:04.548Z,81.53
2022-11-17T10:45:33.761Z,81.09
2022-11-17T10:48:21.499Z,80.59
2022-11-17T10:50:55.132Z,81.42
2022-11-17T10:53:38.226Z,81.19
2022-11-17T10:56:15.420Z,80.88
2022-11-17T10:59:03.208Z,80.66
2022-11-17T11:01:33.582Z,81.05
2022-11-17T11:04:02.882Z,81.11
2022-11-17T11:06:32.432Z,81.22
2022-11-17T11:09:05.683Z,80.96
2022-11-17T11:11:42.231Z,80.60
2022-11-17T11:14:19.291Z,80.50
2022-11-17T11:16:49.197Z,80.70
2022-11-17T11:19:21.921Z,80.63
2022-11-17T11:22:04.059Z,80.33
2022-11-17T11:24:43.863Z,79.89
2022-11-17T11:27:28.621Z,79.73
2022-11-17T11:30:03.443Z,80.00
2022-11-17T11:32:42.334Z,79.62
2022-11-17T11:35:38.299Z,79.10
2022-11-17T11:38:18.911Z,79.49
2022-11-17T11:41:02.875Z,79.26
2022-11-17T11:43:40.763Z,79.60
2022-11-17T11:46:17.193Z,79.34
2022-11-17T11:48:49.287Z,79.02
2022-11-17T11:51:22.181Z,79.25
2022-11-17T11:53:55.887Z,79.10
2022-11-17T11:56:33.045Z,79.32
2022-11-17T11:59:05.035Z,79.07
2022-11-17T12:01:44.004Z,79.28
2022-11-17T12:04:26.698Z,79.44
2022-11-17T12:07:01.433Z,79.07
2022-11-17T12:09:45.160Z,79.40
2022-11-17T12:12:18.343Z,79.17
2022-11-17T12:15:32.874Z,79.06
2022-11-17T12:18:04.906Z,79.82
2022-11-17T12:20:53.712Z,78.97
2022-11-17T12:23:58.377Z,79.22
2022-11-17T12:26:29.517Z,79.63
2022-11-17T12:29:26.577Z,79.29
2022-11-17T12:31:55.982Z,79.46
2022-11-17T12:34:27.735Z,79.60
2022-11-17T12:37:21.834Z,79.34
2022-11-17T12:39:58.471Z,79.31
2022-11-17T12:42:27.562Z,79.30
2022-11-17T12:45:02.675Z,79.11
2022-11-17T12:47:33.527Z,79.12
2022-11-17T12:50:43.308Z,78.72
2022-11-17T12:53:27.399Z,79.34
2022-11-17T12:56:43.255Z,79.03
2022-11-17T12:59:45.680Z,79.43
2022-11-17T13:02:31.954Z,79.25
2022-11-17T13:05:05.062Z,79.11
2022-11-17T13:07:33.891Z,79.12
2022-11-17T13:10:02.801Z,79.70
2022-11-17T13:12:32.600Z,79.08
2022-11-17T13:15:02.910Z,79.45
2022-11-17T13:17:39.848Z,79.89
2022-11-17T13:20:20.533Z,79.67
2022-11-17T13:23:00.618Z,79.89
2022-11-17T13:25:29.030Z,79.91
2022-11-17T13:28:04.146Z,79.98
2022-11-17T13:30:34.036Z,79.95
2022-11-17T13:33:04.810Z,80.66
2022-11-17T13:35:35.842Z,80.25
2022-11-17T13:38:07.333Z,80.43
2022-11-17T13:40:37.786Z,80.50
2022-11-17T13:43:06.967Z,80.39
2022-11-17T13:45:36.268Z,80.64
2022-11-17T13:48:06.280Z,80.59
2022-11-17T13:50:39.128Z,80.41
2022-11-17T13:53:24.053Z,80.55
2022-11-17T13:55:53.459Z,80.34
2022-11-17T13:58:33.813Z,80.42
2022-11-17T14:01:02.497Z,80.52
2022-11-17T14:03:40.466Z,80.29
2022-11-17T14:06:10.609Z,80.32
2022-11-17T14:08:40.999Z,80.73
2022-11-17T14:11:21.238Z,80.38
2022-11-17T14:13:52.415Z,80.95
2022-11-17T14:16:27.111Z,81.03
2022-11-17T14:19:00.007Z,80.58
2022-11-17T14:21:29.143Z,80.61
2022-11-17T14:24:13.913Z,80.75
2022-11-17T14:26:44.678Z,81.22
2022-11-17T14:29:14.245Z,81.07
2022-11-17T14:31:43.252Z,81.11
2022-11-17T14:34:13.430Z,81.22
2022-11-17T14:36:43.038Z,80.99
2022-11-17T14:39:15.237Z,80.85
2022-11-17T14:41:44.386Z,80.64
2022-11-17T14:44:13.087Z,80.80
2022-11-17T14:46:42.013Z,80.92
2022-11-17T14:49:12.252Z,81.14
2022-11-17T14:51:41.058Z,80.96
2022-11-17T14:54:09.686Z,80.77
2022-11-17T14:56:38.139Z,80.99
2022-11-17T14:59:06.459Z,80.79
2022-11-17T15:01:38.568Z,80.96
2022-11-17T15:04:34.485Z,80.73
2022-11-17T15:06:58.086Z,80.92
2022-11-17T15:09:26.476Z,80.78
2022-11-17T15:11:54.903Z,80.74
2022-11-17T15:14:24.099Z,81.20
2022-11-17T15:16:52.495Z,80.48
2022-11-17T15:19:20.922Z,80.30
2022-11-17T15:21:49.332Z,80.02
2022-11-17T15:24:19.050Z,80.69
2022-11-17T15:26:47.448Z,80.29
2022-11-17T15:29:18.420Z,80.72
2022-11-17T15:31:47.471Z,80.54
2022-11-17T15:34:20.260Z,80.96
2022-11-17T15:36:49.265Z,80.61
2022-11-17T15:39:20.674Z,80.86
2022-11-17T15:41:50.522Z,81.20
2022-11-17T15:44:19.839Z,80.85
2022-11-17T15:46:48.540Z,80.69
2022-11-17T15:49:17.581Z,81.08
2022-11-17T15:51:46.314Z,80.76
2022-11-17T15:54:20.047Z,80.47
2022-11-17T15:56:50.977Z,81.21
2022-11-17T15:59:19.882Z,80.92
2022-11-17T16:01:48.480Z,81.52
2022-11-17T16:04:17.261Z,81.32
2022-11-17T16:06:47.546Z,81.68
2022-11-17T16:09:17.120Z,81.44
2022-11-17T16:11:46.196Z,81.28
2022-11-17T16:14:16.040Z,81.33
2022-11-17T16:16:46.748Z,81.55
2022-11-17T16:19:15.318Z,81.69
2022-11-17T16:21:44.585Z,81.04
2022-11-17T16:24:13.246Z,81.13
2022-11-17T16:26:41.748Z,81.67
2022-11-17T16:29:10.194Z,81.79
2022-11-17T16:31:40.518Z,81.47
2022-11-17T16:34:12.895Z,81.24
2022-11-17T16:36:43.008Z,81.57
2022-11-17T16:39:13.667Z,81.98
2022-11-17T16:41:43.550Z,81.67
2022-11-17T16:44:13.466Z,81.58
2022-11-17T16:46:45.184Z,81.68
2022-11-17T16:49:16.171Z,81.83
2022-11-17T16:51:48.598Z,81.85
2022-11-17T16:54:18.098Z,81.97
2022-11-17T16:56:46.958Z,81.86
2022-11-17T16:59:16.063Z,81.68
2022-11-17T17:01:47.588Z,81.60
2022-11-17T17:04:16.610Z,81.56
2022-11-17T17:06:45.876Z,82.17
2022-11-17T17:09:15.949Z,82.05
2022-11-17T17:11:44.663Z,82.00
2022-11-17T17:14:14.351Z,81.76
2022-11-17T17:16:43.720Z,81.67
2022-11-17T17:19:15.397Z,81.81
2022-11-17T17:21:45.562Z,81.45
2022-11-17T17:24:14.195Z,81.72
2022-11-17T17:26:42.989Z,81.49
2022-11-17T17:29:11.951Z,81.93
2022-11-17T17:31:42.411Z,81.67
2022-11-17T17:34:14.044Z,81.99
2022-11-17T17:36:42.556Z,81.57
2022-11-17T17:39:14.640Z,81.71
2022-11-17T17:41:44.353Z,81.65
2022-11-17T17:44:17.198Z,81.50
2022-11-17T17:46:46.219Z,81.70
2022-11-17T17:49:16.255Z,81.48
2022-11-17T17:51:45.420Z,81.63
2022-11-17T17:54:17.079Z,81.46
2022-11-17T17:56:45.941Z,81.80
2022-11-17T17:59:15.934Z,81.62
2022-11-17T18:01:46.254Z,81.62
2022-11-17T18:04:17.099Z,82.14
2022-11-17T18:06:47.904Z,81.52
2022-11-17T18:09:19.350Z,81.75
2022-11-17T18:11:50.021Z,81.99
2022-11-17T18:14:20.529Z,81.57
2022-11-17T18:16:49.103Z,81.85
2022-11-17T18:19:19.243Z,81.68
2022-11-17T18:21:47.800Z,81.52
2022-11-17T18:24:16.228Z,82.41
2022-11-17T18:26:45.050Z,81.70
2022-11-17T18:29:16.066Z,81.67
2022-11-17T18:31:46.783Z,82.51
2022-11-17T18:34:17.256Z,81.88
2022-11-17T18:36:47.233Z,82.27
2022-11-17T18:39:16.368Z,82.15
2022-11-17T18:41:45.912Z,82.16
2022-11-17T18:44:15.219Z,82.57
2022-11-17T18:46:43.650Z,82.31
2022-11-17T18:49:12.377Z,82.45
2022-11-17T18:51:41.815Z,82.49
2022-11-17T18:54:13.143Z,82.80
2022-11-17T18:56:42.070Z,82.64
2022-11-17T18:59:12.311Z,82.66
2022-11-17T19:01:43.019Z,82.59
2022-11-17T19:04:14.029Z,83.00
2022-11-17T19:06:43.030Z,82.82
2022-11-17T19:09:13.437Z,82.38
2022-11-17T19:11:42.142Z,82.64
2022-11-17T19:14:10.540Z,82.65
2022-11-17T19:16:44.079Z,82.48
2022-11-17T19:19:15.099Z,82.68
2022-11-17T19:21:43.999Z,82.57
2022-11-17T19:24:15.208Z,82.34
2022-11-17T19:26:43.790Z,82.69
2022-11-17T19:29:17.031Z,82.67
2022-11-17T19:31:46.272Z,82.81
2022-11-17T19:34:14.824Z,82.75
2022-11-17T19:36:44.552Z,82.71
2022-11-17T19:39:15.280Z,82.87
2022-11-17T19:41:45.103Z,83.15
2022-11-17T19:44:13.695Z,82.89
2022-11-17T19:46:43.466Z,82.81
2022-11-17T19:49:13.042Z,82.80
2022-11-17T19:51:41.943Z,83.21
2022-11-17T19:54:13.469Z,83.22
2022-11-17T19:56:43.594Z,83.52
2022-11-17T19:59:16.082Z,83.70
2022-11-17T20:01:46.042Z,83.41
2022-11-17T20:04:14.757Z,83.32
2022-11-17T20:06:43.152Z,84.05
2022-11-17T20:09:13.187Z,83.35
2022-11-17T20:11:43.573Z,83.94
2022-11-17T20:14:12.013Z,83.54
2022-11-17T20:16:40.431Z,83.65
2022-11-17T20:19:09.935Z,83.36
2022-11-17T20:21:38.262Z,83.83
2022-11-17T20:24:07.139Z,83.66
2022-11-17T20:26:36.295Z,83.16
2022-11-17T20:29:06.011Z,83.50
2022-11-17T20:31:36.120Z,83.40
2022-11-17T20:34:06.384Z,83.53
2022-11-17T20:36:35.269Z,83.29
2022-11-17T20:39:06.047Z,83.26
2022-11-17T20:41:34.412Z,83.39
2022-11-17T20:44:03.400Z,83.81
2022-11-17T20:46:33.322Z,84.11
2022-11-17T20:49:01.667Z,84.04
2022-11-17T20:51:30.131Z,83.83
2022-11-17T20:53:58.450Z,83.97
2022-11-17T20:56:26.811Z,84.08
2022-11-17T20:58:55.208Z,83.92
2022-11-17T21:01:24.159Z,83.96
2022-11-17T21:03:54.115Z,83.65
2022-11-17T21:06:23.385Z,83.55
2022-11-17T21:08:52.207Z,83.76
2022-11-17T21:11:39.634Z,83.84
2022-11-17T21:14:10.781Z,83.66
2022-11-17T21:16:41.427Z,83.81
2022-11-17T21:19:11.389Z,83.78
2022-11-17T21:21:39.844Z,83.89
2022-11-17T21:24:09.136Z,83.93
2022-11-17T21:26:37.754Z,83.96
2022-11-17T21:29:07.213Z,83.90
2022-11-17T21:31:36.147Z,84.19
2022-11-17T21:34:07.146Z,84.03
2022-11-17T21:36:37.185Z,84.40
2022-11-17T21:39:05.932Z,84.76
2022-11-17T21:41:36.299Z,84.66
2022-11-17T21:44:05.186Z,84.83
2022-11-17T21:46:36.317Z,84.50
2022-11-17T21:49:05.008Z,84.37
2022-11-17T21:51:37.811Z,84.20
2022-11-17T21:54:09.791Z,84.18
2022-11-17T21:56:38.775Z,84.02
2022-11-17T21:59:11.581Z,84.18
2022-11-17T22:01:40.866Z,83.85
2022-11-17T22:04:09.463Z,84.01
2022-11-17T22:06:39.496Z,83.98
2022-11-17T22:09:09.603Z,84.16
2022-11-17T22:11:39.246Z,84.19
2022-11-17T22:14:10.622Z,84.31
2022-11-17T22:16:40.553Z,84.16
2022-11-17T22:19:10.185Z,84.04
2022-11-17T22:21:39.643Z,83.99
2022-11-17T22:24:11.797Z,83.99
2022-11-17T22:26:42.190Z,83.98
2022-11-17T22:29:13.774Z,83.88
2022-11-17T22:31:42.808Z,83.87
2022-11-17T22:34:11.769Z,83.54
2022-11-17T22:36:40.400Z,83.82
2022-11-17T22:39:10.823Z,83.82
2022-11-17T22:41:39.327Z,83.59
2022-11-17T22:44:07.816Z,83.86
2022-11-17T22:46:36.506Z,83.90
2022-11-17T22:49:04.872Z,83.64
2022-11-17T22:51:50.880Z,83.81
2022-11-17T22:54:20.613Z,83.80
2022-11-17T22:56:49.039Z,83.69
2022-11-17T22:59:17.810Z,84.08
2022-11-17T23:01:46.696Z,83.83
2022-11-17T23:04:16.385Z,84.23
2022-11-17T23:06:44.989Z,84.25
2022-11-17T23:09:14.369Z,84.23
2022-11-17T23:11:45.010Z,84.25
2022-11-17T23:14:15.030Z,83.94
2022-11-17T23:16:44.084Z,84.42
2022-11-17T23:19:14.255Z,84.24
2022-11-17T23:21:42.892Z,84.26
2022-11-17T23:24:12.949Z,84.46
2022-11-17T23:26:42.048Z,84.56
2022-11-17T23:29:11.920Z,84.97
2022-11-17T23:31:40.586Z,85.14
2022-11-17T23:34:10.025Z,84.69
2022-11-17T23:36:38.494Z,84.91
2022-11-17T23:39:07.002Z,84.90
2022-11-17T23:41:35.501Z,84.85
2022-11-17T23:44:03.985Z,84.84
2022-11-17T23:46:33.834Z,84.56
2022-11-17T23:49:02.279Z,84.71
2022-11-17T23:51:31.010Z,84.72
2022-11-17T23:54:00.970Z,84.62
2022-11-17T23:56:35.319Z,85.03
2022-11-17T23:59:04.258Z,85.06
